Time;durP1;ratioP1;P1;durP2;ratioP2;P2;SDS_P1;SDS_P2;PMS_P1;PMS_P2;Temp;Humidity;BMP_temperature;BMP_pressure;BME280_temperature;BME280_humidity;BME280_pressure;Samples;Min_cycle;Max_cycle;Signal;HPM_P1;HPM_P2
2023/04/15 00:00:39;;;;;;;;;;;7.40;99.90;;;;;;4920103;29;20281;-80
2023/04/15 00:03:07;;;;;;;;;;;7.40;99.90;;;;;;4900133;29;19937;-80
2023/04/15 00:05:33;;;;;;;;;;;7.40;99.90;;;;;;4884705;29;19923;-80
2023/04/15 00:08:00;;;;;;;;;;;7.40;99.90;;;;;;4899669;29;19927;-79
2023/04/15 00:10:27;;;;;;;;;;;7.40;99.90;;;;;;4884629;29;20269;-80
2023/04/15 00:12:53;;;;;;;;;;;7.40;99.90;;;;;;4893939;29;19990;-80
2023/04/15 00:15:21;;;;;;;;;;;7.40;99.90;;;;;;4918950;29;20322;-79
2023/04/15 00:17:47;;;;;;;;;;;7.40;99.90;;;;;;4918558;29;19946;-79
2023/04/15 00:20:14;;;;;;;;;;;7.40;99.90;;;;;;4919789;29;19923;-80
2023/04/15 00:22:41;;;;;;;;;;;7.40;99.90;;;;;;4918833;29;19922;-80
2023/04/15 00:25:08;;;;;;;;;;;7.50;99.90;;;;;;4918845;29;19923;-79
2023/04/15 00:27:34;;;;;;;;;;;7.40;99.90;;;;;;4918284;29;20310;-79
2023/04/15 00:30:02;;;;;;;;;;;7.50;99.90;;;;;;4917689;29;20009;-80
2023/04/15 00:32:29;;;;;;;;;;;7.50;99.90;;;;;;4919517;29;19934;-79
2023/04/15 00:34:57;;;;;;;;;;;7.50;99.90;;;;;;4918556;29;19927;-80
2023/04/15 00:37:23;;;;;;;;;;;7.50;99.90;;;;;;4919228;29;19959;-80
2023/04/15 00:39:50;;;;;;;;;;;7.50;99.90;;;;;;4918501;29;19964;-80
2023/04/15 00:42:17;;;;;;;;;;;7.50;99.90;;;;;;4917691;29;19923;-80
2023/04/15 00:44:44;;;;;;;;;;;7.50;99.90;;;;;;4920007;29;19923;-80
2023/04/15 00:47:10;;;;;;;;;;;7.50;99.90;;;;;;4919055;29;20021;-80
2023/04/15 00:49:37;;;;;;;;;;;7.40;99.90;;;;;;4917387;29;20278;-81
2023/04/15 00:52:04;;;;;;;;;;;7.40;99.90;;;;;;4919293;29;20022;-80
2023/04/15 00:54:30;;;;;;;;;;;7.40;99.90;;;;;;4919547;29;19923;-79
2023/04/15 00:56:58;;;;;;;;;;;7.40;99.90;;;;;;4917061;29;20269;-79
2023/04/15 00:59:25;;;;;;;;;;;7.40;99.90;;;;;;4919564;29;19923;-81
2023/04/15 01:01:52;;;;;;;;;;;7.50;99.90;;;;;;4918072;29;19982;-82
2023/04/15 01:04:19;;;;;;;;;;;7.50;99.90;;;;;;4919202;29;20017;-80
2023/04/15 01:06:46;;;;;;;;;;;7.50;99.90;;;;;;4917774;29;19965;-81
2023/04/15 01:09:13;;;;;;;;;;;7.50;99.90;;;;;;4917523;29;20334;-81
2023/04/15 01:11:39;;;;;;;;;;;7.50;99.90;;;;;;4918103;29;20373;-81
2023/04/15 01:14:07;;;;;;;;;;;7.50;99.90;;;;;;4899029;29;19923;-82
2023/04/15 01:16:33;;;;;;;;;;;7.50;99.90;;;;;;4897670;29;20021;-81
2023/04/15 01:19:00;;;;;;;;;;;7.60;99.90;;;;;;4899982;29;19929;-81
2023/04/15 01:21:28;;;;;;;;;;;7.60;99.90;;;;;;4898018;29;20009;-81
2023/04/15 01:23:56;;;;;;;;;;;7.60;99.90;;;;;;4883649;29;20303;-81
2023/04/15 01:26:23;;;;;;;;;;;7.60;99.90;;;;;;4900126;29;19923;-81
2023/04/15 01:28:50;;;;;;;;;;;7.70;99.90;;;;;;4882210;29;20377;-81
2023/04/15 01:31:17;;;;;;;;;;;7.60;99.90;;;;;;4899844;29;20010;-81
2023/04/15 01:33:44;;;;;;;;;;;7.60;99.90;;;;;;4899782;29;19923;-81
2023/04/15 01:36:13;;;;;;;;;;;7.60;99.90;;;;;;4898928;29;20298;-81
2023/04/15 01:38:40;;;;;;;;;;;7.50;99.90;;;;;;4898586;29;19955;-81
2023/04/15 01:41:07;;;;;;;;;;;7.60;99.90;;;;;;4898880;29;20036;-81
2023/04/15 01:43:35;;;;;;;;;;;7.60;99.90;;;;;;4897703;29;20014;-81
2023/04/15 01:46:02;;;;;;;;;;;7.60;99.90;;;;;;4883332;29;20018;-81
2023/04/15 01:48:31;;;;;;;;;;;7.60;99.90;;;;;;4897545;29;19927;-81
2023/04/15 01:50:57;;;;;;;;;;;7.60;99.90;;;;;;4899670;29;19923;-81
2023/04/15 01:53:24;;;;;;;;;;;7.60;99.90;;;;;;4898802;29;19923;-81
2023/04/15 01:55:51;;;;;;;;;;;7.60;99.90;;;;;;4882182;29;19934;-81
2023/04/15 01:58:18;;;;;;;;;;;7.60;99.90;;;;;;4898319;29;20017;-81
2023/04/15 02:00:44;;;;;;;;;;;7.60;99.90;;;;;;4898825;29;20349;-81
2023/04/15 02:03:11;;;;;;;;;;;7.60;99.90;;;;;;4898731;29;19946;-81
2023/04/15 02:05:38;;;;;;;;;;;7.60;99.90;;;;;;4883077;29;19923;-81
2023/04/15 02:08:05;;;;;;;;;;;7.60;99.90;;;;;;4898270;29;19954;-81
2023/04/15 02:10:31;;;;;;;;;;;7.60;99.90;;;;;;4898702;29;19923;-81
2023/04/15 02:12:58;;;;;;;;;;;7.60;99.90;;;;;;4908787;29;19923;-81
2023/04/15 02:15:27;;;;;;;;;;;7.60;99.90;;;;;;4916494;29;19930;-81
2023/04/15 02:17:54;;;;;;;;;;;7.50;99.90;;;;;;4917985;29;19923;-81
2023/04/15 02:20:21;;;;;;;;;;;7.50;99.90;;;;;;4918688;29;19927;-81
2023/04/15 02:22:48;;;;;;;;;;;7.50;99.90;;;;;;4917434;29;19998;-81
2023/04/15 02:25:16;;;;;;;;;;;7.50;99.90;;;;;;4917375;29;19923;-81
2023/04/15 02:27:45;;;;;;;;;;;7.40;99.90;;;;;;4916832;29;20340;-80
2023/04/15 02:30:12;;;;;;;;;;;7.30;99.90;;;;;;4917180;29;19923;-81
2023/04/15 02:32:39;;;;;;;;;;;7.30;99.90;;;;;;4918654;29;19979;-81
2023/04/15 02:35:06;;;;;;;;;;;7.20;99.90;;;;;;4920759;29;19958;-81
2023/04/15 02:37:35;;;;;;;;;;;7.20;99.90;;;;;;4920228;29;19923;-81
2023/04/15 02:40:03;;;;;;;;;;;7.20;99.90;;;;;;4920638;29;20002;-81
2023/04/15 02:42:30;;;;;;;;;;;7.20;99.90;;;;;;4919639;29;19955;-81
2023/04/15 02:44:59;;;;;;;;;;;7.10;99.90;;;;;;4921085;29;19979;-81
2023/04/15 02:47:30;;;;;;;;;;;7.10;99.90;;;;;;4920161;29;20361;-81
2023/04/15 02:49:59;;;;;;;;;;;7.10;99.90;;;;;;4919619;29;19945;-81
2023/04/15 02:52:27;;;;;;;;;;;7.10;99.90;;;;;;4921293;29;19926;-81
2023/04/15 02:54:59;;;;;;;;;;;7.00;99.90;;;;;;4920622;29;19923;-81
2023/04/15 02:57:30;;;;;;;;;;;7.00;99.90;;;;;;4920282;29;19973;-81
2023/04/15 03:00:02;;;;;;;;;;;7.00;99.90;;;;;;4921599;29;20021;-81
2023/04/15 03:02:29;;;;;;;;;;;7.10;99.90;;;;;;4921558;29;19952;-81
2023/04/15 03:04:55;;;;;;;;;;;7.10;99.90;;;;;;4920240;29;19923;-82
2023/04/15 03:07:22;;;;;;;;;;;7.00;99.90;;;;;;4901691;29;20022;-81
2023/04/15 03:09:49;;;;;;;;;;;7.00;99.90;;;;;;4901993;29;20022;-81
2023/04/15 03:12:16;;;;;;;;;;;7.00;99.90;;;;;;4901678;29;20262;-82
2023/04/15 03:14:43;;;;;;;;;;;7.00;99.90;;;;;;4900610;29;19974;-81
2023/04/15 03:17:10;;;;;;;;;;;7.00;99.90;;;;;;4902414;29;19979;-82
2023/04/15 03:19:37;;;;;;;;;;;7.00;99.90;;;;;;4916940;29;19942;-81
2023/04/15 03:22:04;;;;;;;;;;;7.00;99.90;;;;;;4916200;29;19923;-82
2023/04/15 03:24:31;;;;;;;;;;;7.00;99.90;;;;;;4902384;29;19994;-80
2023/04/15 03:26:57;;;;;;;;;;;7.00;99.90;;;;;;4916387;29;19923;-81
2023/04/15 03:29:24;;;;;;;;;;;7.00;99.90;;;;;;4915931;29;20373;-81
2023/04/15 03:31:51;;;;;;;;;;;7.00;99.90;;;;;;4916570;29;19923;-81
2023/04/15 03:34:18;;;;;;;;;;;7.00;99.90;;;;;;4902177;29;19934;-81
2023/04/15 03:36:44;;;;;;;;;;;7.00;99.90;;;;;;4900265;29;19924;-81
2023/04/15 03:39:11;;;;;;;;;;;7.00;99.90;;;;;;4901787;29;20240;-81
2023/04/15 03:41:38;;;;;;;;;;;6.90;99.90;;;;;;4900661;29;20275;-81
2023/04/15 03:44:05;;;;;;;;;;;7.00;99.90;;;;;;4900925;29;19927;-81
2023/04/15 03:46:32;;;;;;;;;;;7.00;99.90;;;;;;4901397;29;19927;-81
2023/04/15 03:48:58;;;;;;;;;;;7.00;99.90;;;;;;4900520;29;19979;-81
2023/04/15 03:51:25;;;;;;;;;;;7.00;99.90;;;;;;4901580;29;19950;-81
2023/04/15 03:53:52;;;;;;;;;;;7.10;99.90;;;;;;4901381;29;19946;-81
2023/04/15 03:56:18;;;;;;;;;;;7.00;99.90;;;;;;4899958;29;19986;-81
2023/04/15 03:58:45;;;;;;;;;;;7.00;99.90;;;;;;4901357;29;20299;-81
2023/04/15 04:01:12;;;;;;;;;;;7.00;99.90;;;;;;4901194;29;19938;-82
2023/04/15 04:03:38;;;;;;;;;;;7.00;99.90;;;;;;4900157;29;19979;-81
2023/04/15 04:06:05;;;;;;;;;;;7.00;99.90;;;;;;4909745;29;19923;-81
2023/04/15 04:08:32;;;;;;;;;;;7.00;99.90;;;;;;4917696;29;19923;-81
2023/04/15 04:10:59;;;;;;;;;;;7.00;99.90;;;;;;4919112;29;19959;-81
2023/04/15 04:13:25;;;;;;;;;;;7.00;99.90;;;;;;4919741;29;20009;-81
2023/04/15 04:15:52;;;;;;;;;;;6.90;99.90;;;;;;4919042;29;20271;-81
2023/04/15 04:18:19;;;;;;;;;;;6.90;99.90;;;;;;4919323;29;19958;-81
2023/04/15 04:20:46;;;;;;;;;;;6.90;99.90;;;;;;4919897;29;20357;-81
2023/04/15 04:23:12;;;;;;;;;;;6.90;99.90;;;;;;4917937;29;19930;-81
2023/04/15 04:25:39;;;;;;;;;;;7.00;99.90;;;;;;4918877;29;19934;-82
2023/04/15 04:28:06;;;;;;;;;;;7.00;99.90;;;;;;4917092;29;20025;-82
2023/04/15 04:30:32;;;;;;;;;;;7.00;99.90;;;;;;4918986;29;19930;-81
2023/04/15 04:32:59;;;;;;;;;;;6.90;99.90;;;;;;4918515;29;19974;-81
2023/04/15 04:35:26;;;;;;;;;;;6.90;99.90;;;;;;4917620;29;19931;-80
2023/04/15 04:37:53;;;;;;;;;;;6.90;99.90;;;;;;4919375;29;20346;-81
2023/04/15 04:40:19;;;;;;;;;;;6.90;99.90;;;;;;4919441;29;19923;-81
2023/04/15 04:42:46;;;;;;;;;;;6.90;99.90;;;;;;4917276;29;19923;-81
2023/04/15 04:45:12;;;;;;;;;;;6.90;99.90;;;;;;4918513;29;19927;-81
2023/04/15 04:47:39;;;;;;;;;;;7.00;99.90;;;;;;4918207;29;19958;-81
2023/04/15 04:50:06;;;;;;;;;;;6.90;99.90;;;;;;4918379;29;19991;-81
2023/04/15 04:52:33;;;;;;;;;;;7.00;99.90;;;;;;4919309;29;19934;-81
2023/04/15 04:55:00;;;;;;;;;;;7.00;99.90;;;;;;4918333;29;20231;-81
2023/04/15 04:57:26;;;;;;;;;;;7.00;99.90;;;;;;4917735;29;20425;-81
2023/04/15 04:59:53;;;;;;;;;;;7.00;99.90;;;;;;4919282;29;19923;-82
2023/04/15 05:02:20;;;;;;;;;;;7.00;99.90;;;;;;4918051;29;20266;-81
2023/04/15 05:04:48;;;;;;;;;;;7.00;99.90;;;;;;4919117;29;20009;-81
2023/04/15 05:07:15;;;;;;;;;;;7.00;99.90;;;;;;4917709;29;19923;-81
2023/04/15 05:09:42;;;;;;;;;;;7.00;99.90;;;;;;4901380;29;19945;-82
2023/04/15 05:12:13;;;;;;;;;;;7.00;99.90;;;;;;4918910;29;20366;-81
2023/04/15 05:14:40;;;;;;;;;;;7.00;99.90;;;;;;4918771;29;19929;-81
2023/04/15 05:17:07;;;;;;;;;;;7.00;99.90;;;;;;4918620;29;19931;-81
2023/04/15 05:19:33;;;;;;;;;;;7.00;99.90;;;;;;4919154;29;20346;-81
2023/04/15 05:22:00;;;;;;;;;;;7.00;99.90;;;;;;4917232;29;19934;-81
2023/04/15 05:24:27;;;;;;;;;;;7.00;99.90;;;;;;4919585;29;20022;-82
2023/04/15 05:26:53;;;;;;;;;;;7.00;99.90;;;;;;4919080;29;19923;-80
2023/04/15 05:29:20;;;;;;;;;;;7.10;99.90;;;;;;4918729;29;19922;-82
2023/04/15 05:31:46;;;;;;;;;;;7.00;99.90;;;;;;4919747;29;19923;-82
2023/04/15 05:34:15;;;;;;;;;;;7.10;99.90;;;;;;4917955;29;20417;-81
2023/04/15 05:36:42;;;;;;;;;;;7.10;99.90;;;;;;4917456;29;20310;-81
2023/04/15 05:39:08;;;;;;;;;;;7.20;99.90;;;;;;4919298;29;19934;-82
2023/04/15 05:41:35;;;;;;;;;;;7.10;99.90;;;;;;4917896;29;19923;-81
2023/04/15 05:44:02;;;;;;;;;;;7.20;99.90;;;;;;4918821;29;20376;-81
2023/04/15 05:46:28;;;;;;;;;;;7.20;99.90;;;;;;4917601;29;20373;-81
2023/04/15 05:48:55;;;;;;;;;;;7.20;99.90;;;;;;4917704;29;19923;-81
2023/04/15 05:51:22;;;;;;;;;;;7.20;99.90;;;;;;4918585;29;19934;-81
2023/04/15 05:53:49;;;;;;;;;;;7.20;99.90;;;;;;4918508;29;19923;-81
2023/04/15 05:56:16;;;;;;;;;;;7.20;99.90;;;;;;4916561;29;19927;-81
2023/04/15 05:58:42;;;;;;;;;;;7.20;99.90;;;;;;4917750;29;19930;-81
2023/04/15 06:01:09;;;;;;;;;;;7.30;99.90;;;;;;4918496;29;20358;-81
2023/04/15 06:03:36;;;;;;;;;;;7.30;99.90;;;;;;4917427;29;19933;-81
2023/04/15 06:06:02;;;;;;;;;;;7.30;99.90;;;;;;4917895;29;19926;-81
2023/04/15 06:08:29;;;;;;;;;;;7.40;99.90;;;;;;4919272;29;19923;-81
2023/04/15 06:10:56;;;;;;;;;;;7.40;99.90;;;;;;4918188;29;19927;-81
2023/04/15 06:13:23;;;;;;;;;;;7.50;99.90;;;;;;4915566;29;19927;-82
2023/04/15 06:15:50;;;;;;;;;;;7.50;99.90;;;;;;4921343;29;19930;-81
2023/04/15 06:18:17;;;;;;;;;;;7.50;99.90;;;;;;4920713;29;19923;-81
2023/04/15 06:20:43;;;;;;;;;;;7.50;99.90;;;;;;4921905;29;19931;-82
2023/04/15 06:23:11;;;;;;;;;;;7.50;99.90;;;;;;4910327;29;19923;-81
2023/04/15 06:25:38;;;;;;;;;;;7.50;99.90;;;;;;4940518;29;19953;-81
2023/04/15 06:28:05;;;;;;;;;;;7.50;99.90;;;;;;4936512;29;19974;-82
2023/04/15 06:30:31;;;;;;;;;;;7.50;99.90;;;;;;4905246;29;19923;-81
2023/04/15 06:32:58;;;;;;;;;;;7.50;99.90;;;;;;4904658;29;20002;-82
2023/04/15 06:35:26;;;;;;;;;;;7.60;99.90;;;;;;4904181;29;20017;-81
2023/04/15 06:37:53;;;;;;;;;;;7.60;99.90;;;;;;4921447;29;19923;-81
2023/04/15 06:40:19;;;;;;;;;;;7.60;99.90;;;;;;4904501;29;19927;-80
2023/04/15 06:42:46;;;;;;;;;;;7.60;99.90;;;;;;4920460;29;19978;-82
2023/04/15 06:45:14;;;;;;;;;;;7.60;99.90;;;;;;4919796;29;19982;-81
2023/04/15 06:47:42;;;;;;;;;;;7.60;99.90;;;;;;4920734;29;20347;-81
2023/04/15 06:50:09;;;;;;;;;;;7.70;99.90;;;;;;4919687;29;20361;-81
2023/04/15 06:52:35;;;;;;;;;;;7.70;99.90;;;;;;4920198;29;19923;-81
2023/04/15 06:55:02;;;;;;;;;;;7.70;99.90;;;;;;4920140;29;19930;-81
2023/04/15 06:57:28;;;;;;;;;;;7.70;99.90;;;;;;4921030;29;19935;-81
2023/04/15 06:59:55;;;;;;;;;;;7.70;99.90;;;;;;4920256;29;19923;-81
2023/04/15 07:02:22;;;;;;;;;;;7.70;99.90;;;;;;4903343;29;19923;-81
2023/04/15 07:04:48;;;;;;;;;;;7.80;99.90;;;;;;4921409;29;20314;-80
2023/04/15 07:07:16;;;;;;;;;;;7.80;99.90;;;;;;4918179;29;19923;-84
2023/04/15 07:09:46;;;;;;;;;;;7.90;99.90;;;;;;4908915;29;19928;-85
2023/04/15 07:12:13;;;;;;;;;;;7.90;99.90;;;;;;4905137;29;19931;-85
2023/04/15 07:14:40;;;;;;;;;;;7.90;99.90;;;;;;4918819;29;20354;-84
2023/04/15 07:17:06;;;;;;;;;;;7.90;99.90;;;;;;4918831;29;19923;-82
2023/04/15 07:19:33;;;;;;;;;;;7.90;99.90;;;;;;4920521;29;19975;-84
2023/04/15 07:22:00;;;;;;;;;;;7.90;99.90;;;;;;4918507;29;20353;-85
2023/04/15 07:24:27;;;;;;;;;;;7.80;99.90;;;;;;4919713;29;20013;-83
2023/04/15 07:26:55;;;;;;;;;;;7.80;99.90;;;;;;4918989;29;20259;-83
2023/04/15 07:29:23;;;;;;;;;;;7.90;99.90;;;;;;4917775;29;20021;-80
2023/04/15 07:31:50;;;;;;;;;;;7.90;99.90;;;;;;4920186;29;19934;-80
2023/04/15 07:34:16;;;;;;;;;;;8.00;99.90;;;;;;4920258;29;19934;-80
2023/04/15 07:36:43;;;;;;;;;;;8.00;99.90;;;;;;4918445;29;19923;-81
2023/04/15 07:39:09;;;;;;;;;;;8.00;99.90;;;;;;4913458;29;19931;-80
2023/04/15 07:41:36;;;;;;;;;;;8.00;99.90;;;;;;4918938;29;19923;-80
2023/04/15 07:44:04;;;;;;;;;;;8.00;99.90;;;;;;4917456;29;19923;-80
2023/04/15 07:46:30;;;;;;;;;;;8.00;99.90;;;;;;4920241;29;19986;-78
2023/04/15 07:48:57;;;;;;;;;;;8.00;99.90;;;;;;4899605;29;20277;-80
2023/04/15 07:51:24;;;;;;;;;;;8.00;99.90;;;;;;4917721;29;20318;-80
2023/04/15 07:53:51;;;;;;;;;;;8.00;99.90;;;;;;4917740;29;19934;-80
2023/04/15 07:56:18;;;;;;;;;;;8.00;99.90;;;;;;4918428;29;19961;-80
2023/04/15 07:58:45;;;;;;;;;;;8.00;99.90;;;;;;4916459;29;19987;-80
2023/04/15 08:01:12;;;;;;;;;;;7.90;99.90;;;;;;4917635;29;20328;-80
2023/04/15 08:03:38;;;;;;;;;;;7.90;99.90;;;;;;4915759;29;20390;-80
2023/04/15 08:06:05;;;;;;;;;;;7.90;99.90;;;;;;4916847;29;19965;-79
2023/04/15 08:08:32;;;;;;;;;;;8.00;99.90;;;;;;4900083;29;20009;-79
2023/04/15 08:10:58;;;;;;;;;;;8.00;99.90;;;;;;4912396;29;19927;-79
2023/04/15 08:13:25;;;;;;;;;;;8.20;99.90;;;;;;4900082;29;20247;-80
2023/04/15 08:15:52;;;;;;;;;;;8.30;99.90;;;;;;4917465;29;19927;-79
2023/04/15 08:18:19;;;;;;;;;;;8.40;99.90;;;;;;4918937;29;19927;-80
2023/04/15 08:20:46;;;;;;;;;;;8.30;99.90;;;;;;4919237;29;19923;-80
2023/04/15 08:23:13;;;;;;;;;;;8.40;99.90;;;;;;4918717;29;19998;-80
2023/04/15 08:25:40;;;;;;;;;;;8.30;99.90;;;;;;4918984;29;19973;-80
2023/04/15 08:28:06;;;;;;;;;;;8.40;99.90;;;;;;4917450;29;19950;-82
2023/04/15 08:30:33;;;;;;;;;;;8.40;99.90;;;;;;4918282;29;20022;-80
2023/04/15 08:33:00;;;;;;;;;;;8.50;99.90;;;;;;4918475;29;19923;-80
2023/04/15 08:35:27;;;;;;;;;;;8.50;99.90;;;;;;4917241;29;19934;-81
2023/04/15 08:37:53;;;;;;;;;;;8.60;99.90;;;;;;4919206;29;20295;-81
2023/04/15 08:40:20;;;;;;;;;;;8.70;99.90;;;;;;4919773;29;19970;-79
2023/04/15 08:42:47;;;;;;;;;;;8.70;99.90;;;;;;4902184;29;19923;-80
2023/04/15 08:45:14;;;;;;;;;;;8.80;99.90;;;;;;4919290;29;20014;-80
2023/04/15 08:47:41;;;;;;;;;;;9.00;99.90;;;;;;4918492;29;19923;-79
2023/04/15 08:50:07;;;;;;;;;;;9.10;99.90;;;;;;4918226;29;19923;-80
2023/04/15 08:52:34;;;;;;;;;;;9.30;99.90;;;;;;4919106;29;19933;-80
2023/04/15 08:55:01;;;;;;;;;;;9.50;99.90;;;;;;4917760;29;20326;-80
2023/04/15 08:57:27;;;;;;;;;;;9.70;99.90;;;;;;4918320;29;19934;-80
2023/04/15 08:59:54;;;;;;;;;;;9.90;99.90;;;;;;4918286;29;19923;-80
2023/04/15 09:02:21;;;;;;;;;;;10.00;99.90;;;;;;4917996;29;19930;-80
2023/04/15 09:04:48;;;;;;;;;;;10.10;99.90;;;;;;4917887;29;19951;-80
2023/04/15 09:07:15;;;;;;;;;;;10.00;99.90;;;;;;4917829;29;19923;-80
2023/04/15 09:09:41;;;;;;;;;;;9.90;99.90;;;;;;4917196;29;19927;-80
2023/04/15 09:12:09;;;;;;;;;;;10.00;99.90;;;;;;4919043;29;19934;-80
2023/04/15 09:14:36;;;;;;;;;;;10.00;99.90;;;;;;4917935;29;19950;-80
2023/04/15 09:17:03;;;;;;;;;;;9.90;99.90;;;;;;4917137;29;19922;-80
2023/04/15 09:19:29;;;;;;;;;;;9.90;99.90;;;;;;4918048;29;19937;-80
2023/04/15 09:21:56;;;;;;;;;;;10.00;99.90;;;;;;4917813;29;19946;-80
2023/04/15 09:24:25;;;;;;;;;;;10.10;99.90;;;;;;4918524;29;19929;-80
2023/04/15 09:26:53;;;;;;;;;;;10.30;99.90;;;;;;4918866;29;19927;-80
2023/04/15 09:29:19;;;;;;;;;;;10.40;99.90;;;;;;4917013;29;19927;-80
2023/04/15 09:31:46;;;;;;;;;;;10.40;99.90;;;;;;4918002;29;19966;-80
2023/04/15 09:34:13;;;;;;;;;;;10.30;99.90;;;;;;4918366;29;20251;-80
2023/04/15 09:36:40;;;;;;;;;;;10.30;99.90;;;;;;4918121;29;20042;-80
2023/04/15 09:39:06;;;;;;;;;;;10.40;99.90;;;;;;4918652;29;19922;-80
2023/04/15 09:41:33;;;;;;;;;;;10.50;99.90;;;;;;4917589;29;19930;-80
2023/04/15 09:44:00;;;;;;;;;;;10.90;99.90;;;;;;4921147;29;20013;-80
2023/04/15 09:46:27;;;;;;;;;;;11.00;99.90;;;;;;4922729;29;20009;-80
2023/04/15 09:48:53;;;;;;;;;;;11.00;99.90;;;;;;4921459;29;19923;-80
2023/04/15 09:51:20;;;;;;;;;;;11.20;99.90;;;;;;4922487;29;20337;-80
2023/04/15 09:53:47;;;;;;;;;;;11.30;99.90;;;;;;4922013;29;20324;-80
2023/04/15 09:56:14;;;;;;;;;;;11.40;99.90;;;;;;4921614;29;19923;-80
2023/04/15 09:58:42;;;;;;;;;;;11.50;99.90;;;;;;4922489;29;19946;-80
2023/04/15 10:01:08;;;;;;;;;;;11.50;99.90;;;;;;4922464;29;20355;-80
2023/04/15 10:03:36;;;;;;;;;;;11.40;99.90;;;;;;4921603;29;20041;-80
2023/04/15 10:06:04;;;;;;;;;;;11.20;99.90;;;;;;4922734;29;19923;-80
2023/04/15 10:08:31;;;;;;;;;;;11.00;99.90;;;;;;4920462;29;19923;-80
2023/04/15 10:10:58;;;;;;;;;;;11.00;99.90;;;;;;4922185;29;19922;-80
2023/04/15 10:13:25;;;;;;;;;;;11.20;99.90;;;;;;4922235;29;20289;-80
2023/04/15 10:15:52;;;;;;;;;;;11.20;99.90;;;;;;4920378;29;19942;-80
2023/04/15 10:18:19;;;;;;;;;;;11.20;99.90;;;;;;4921253;29;19923;-80
2023/04/15 10:20:46;;;;;;;;;;;11.20;99.90;;;;;;4922364;29;20282;-80
2023/04/15 10:23:12;;;;;;;;;;;11.40;99.90;;;;;;4920663;29;19927;-80
2023/04/15 10:25:39;;;;;;;;;;;11.50;99.90;;;;;;4921239;29;19938;-80
2023/04/15 10:28:06;;;;;;;;;;;11.50;99.90;;;;;;4921031;29;20029;-80
2023/04/15 10:30:33;;;;;;;;;;;11.50;99.90;;;;;;4921906;29;19934;-80
2023/04/15 10:32:59;;;;;;;;;;;11.40;99.90;;;;;;4920594;29;19923;-80
2023/04/15 10:35:26;;;;;;;;;;;11.30;99.90;;;;;;4919945;29;19923;-80
2023/04/15 10:37:53;;;;;;;;;;;11.20;99.90;;;;;;4921672;29;19930;-80
2023/04/15 10:40:20;;;;;;;;;;;11.30;99.90;;;;;;4921738;29;20266;-81
2023/04/15 10:42:47;;;;;;;;;;;11.40;99.90;;;;;;4920713;29;19927;-80
2023/04/15 10:45:13;;;;;;;;;;;11.50;99.90;;;;;;4917938;29;20311;-81
2023/04/15 10:47:40;;;;;;;;;;;11.70;99.90;;;;;;4915179;29;20417;-81
2023/04/15 10:50:07;;;;;;;;;;;11.90;99.90;;;;;;4904253;29;19923;-80
2023/04/15 10:55:19;;;;;;;;;;;12.20;99.90;;;;;;4922314;29;19931;-80
2023/04/15 10:57:46;;;;;;;;;;;12.20;99.90;;;;;;4940247;29;19922;-80
2023/04/15 11:00:14;;;;;;;;;;;12.20;99.90;;;;;;4939674;29;19927;-80
2023/04/15 11:02:43;;;;;;;;;;;12.30;99.90;;;;;;4938444;29;19933;-80
2023/04/15 11:05:10;;;;;;;;;;;12.50;99.90;;;;;;4939612;29;19922;-80
2023/04/15 11:07:37;;;;;;;;;;;12.70;99.90;;;;;;4939523;29;19931;-79
2023/04/15 11:10:04;;;;;;;;;;;12.90;99.90;;;;;;4923424;29;20017;-80
2023/04/15 11:12:31;;;;;;;;;;;13.20;99.90;;;;;;4919825;29;19937;-80
2023/04/15 11:14:58;;;;;;;;;;;13.20;99.90;;;;;;4919529;29;20369;-80
2023/04/15 11:17:24;;;;;;;;;;;13.20;99.90;;;;;;4911615;29;19934;-80
2023/04/15 11:19:51;;;;;;;;;;;13.50;99.90;;;;;;4920692;29;19966;-81
2023/04/15 11:22:19;;;;;;;;;;;13.90;99.90;;;;;;4901231;29;20375;-79
2023/04/15 11:24:45;;;;;;;;;;;14.50;99.90;;;;;;4901908;29;20358;-81
2023/04/15 11:27:12;;;;;;;;;;;15.00;99.90;;;;;;4901256;29;19999;-81
2023/04/15 11:29:39;;;;;;;;;;;15.10;99.90;;;;;;4917090;29;19934;-80
2023/04/15 11:32:07;;;;;;;;;;;15.70;99.90;;;;;;4920592;29;19923;-80
2023/04/15 11:34:35;;;;;;;;;;;16.30;99.90;;;;;;4920243;29;19923;-79
2023/04/15 11:37:01;;;;;;;;;;;16.10;99.90;;;;;;4922243;29;19962;-81
2023/04/15 11:39:28;;;;;;;;;;;16.70;99.90;;;;;;4920586;29;19934;-81
2023/04/15 11:41:55;;;;;;;;;;;16.30;99.90;;;;;;4918865;29;19927;-81
2023/04/15 11:44:21;;;;;;;;;;;16.10;99.90;;;;;;4920384;29;19923;-82
2023/04/15 11:46:48;;;;;;;;;;;16.30;99.90;;;;;;4920885;29;19931;-80
2023/04/15 11:49:15;;;;;;;;;;;16.10;99.90;;;;;;4919507;29;19927;-82
2023/04/15 11:51:41;;;;;;;;;;;16.90;99.90;;;;;;4920185;29;19930;-80
2023/04/15 11:54:10;;;;;;;;;;;17.10;99.90;;;;;;4919991;29;20346;-82
2023/04/15 11:56:36;;;;;;;;;;;16.80;99.90;;;;;;4898080;29;19927;-82
2023/04/15 11:59:03;;;;;;;;;;;17.30;99.90;;;;;;4919247;29;19981;-82
2023/04/15 12:01:29;;;;;;;;;;;17.20;99.90;;;;;;4927903;29;19937;-81
2023/04/15 12:04:00;;;;;;;;;;;16.50;99.90;;;;;;4939235;29;19933;-81
2023/04/15 12:06:28;;;;;;;;;;;16.60;99.90;;;;;;4930063;29;20005;-80
2023/04/15 12:08:54;;;;;;;;;;;17.20;99.90;;;;;;4917750;29;19923;-80
2023/04/15 12:11:21;;;;;;;;;;;17.00;99.90;;;;;;4927083;29;19960;-82
2023/04/15 12:13:48;;;;;;;;;;;16.10;99.90;;;;;;4939352;29;19927;-80
2023/04/15 12:16:15;;;;;;;;;;;16.30;99.90;;;;;;4938519;29;19923;-81
2023/04/15 12:18:41;;;;;;;;;;;17.20;99.90;;;;;;4938552;29;19962;-81
2023/04/15 12:21:08;;;;;;;;;;;18.20;99.90;;;;;;4938819;29;19923;-82
2023/04/15 12:23:36;;;;;;;;;;;18.60;99.90;;;;;;4933809;29;19933;-82
2023/04/15 12:26:03;;;;;;;;;;;19.10;99.90;;;;;;4900866;29;19923;-81
2023/04/15 12:28:29;;;;;;;;;;;18.50;99.90;;;;;;4900088;29;19931;-81
2023/04/15 12:30:56;;;;;;;;;;;18.40;99.90;;;;;;4899193;29;19986;-81
2023/04/15 12:33:24;;;;;;;;;;;18.80;99.90;;;;;;4899806;29;19923;-82
2023/04/15 12:35:51;;;;;;;;;;;19.30;99.90;;;;;;4917764;29;19927;-81
2023/04/15 12:38:17;;;;;;;;;;;19.60;99.90;;;;;;4919270;29;19923;-81
2023/04/15 12:40:44;;;;;;;;;;;19.90;99.90;;;;;;4918587;29;20298;-82
2023/04/15 12:43:11;;;;;;;;;;;19.20;99.90;;;;;;4917705;29;20262;-81
2023/04/15 12:45:37;;;;;;;;;;;18.60;99.90;;;;;;4918365;29;19991;-82
2023/04/15 12:48:04;;;;;;;;;;;18.20;99.90;;;;;;4919001;29;19923;-81
2023/04/15 12:50:31;;;;;;;;;;;18.20;99.90;;;;;;4918404;29;19934;-81
2023/04/15 12:52:58;;;;;;;;;;;18.30;99.90;;;;;;4909707;29;19927;-83
2023/04/15 12:55:24;;;;;;;;;;;18.20;99.90;;;;;;4917462;29;20295;-82
2023/04/15 12:57:51;;;;;;;;;;;17.80;99.90;;;;;;4918717;29;19923;-81
2023/04/15 13:00:17;;;;;;;;;;;17.50;99.90;;;;;;4914971;29;19934;-81
2023/04/15 13:02:44;;;;;;;;;;;18.00;99.90;;;;;;4915227;29;19923;-81
2023/04/15 13:05:13;;;;;;;;;;;18.50;99.90;;;;;;4915100;29;19923;-81
2023/04/15 13:07:40;;;;;;;;;;;19.20;99.90;;;;;;4916005;29;19937;-81
2023/04/15 13:10:06;;;;;;;;;;;19.80;99.90;;;;;;4914929;29;20373;-80
2023/04/15 13:12:36;;;;;;;;;;;19.30;99.90;;;;;;4931972;29;20345;-81
2023/04/15 13:15:04;;;;;;;;;;;18.20;99.90;;;;;;4936404;29;19922;-81
2023/04/15 13:17:31;;;;;;;;;;;17.60;99.90;;;;;;4920211;29;19927;-80
2023/04/15 13:19:58;;;;;;;;;;;17.50;99.90;;;;;;4918953;29;19922;-81
2023/04/15 13:22:25;;;;;;;;;;;17.30;99.90;;;;;;4901838;29;20270;-80
2023/04/15 13:24:51;;;;;;;;;;;16.80;99.90;;;;;;4918737;29;20406;-80
2023/04/15 13:27:18;;;;;;;;;;;16.80;99.90;;;;;;4919036;29;19927;-81
2023/04/15 13:29:45;;;;;;;;;;;16.50;99.90;;;;;;4913641;29;19950;-81
2023/04/15 13:34:58;;;;;;;;;;;17.80;99.90;;;;;;4916445;29;19949;-81
2023/04/15 13:37:24;;;;;;;;;;;18.90;99.90;;;;;;4918398;29;19926;-81
2023/04/15 13:39:51;;;;;;;;;;;19.90;99.90;;;;;;4918509;29;19982;-80
2023/04/15 13:42:20;;;;;;;;;;;20.80;99.90;;;;;;4914210;29;19930;-81
2023/04/15 13:44:47;;;;;;;;;;;20.80;99.60;;;;;;4899706;29;19924;-80
2023/04/15 13:47:14;;;;;;;;;;;20.60;98.30;;;;;;4899507;29;19923;-80
2023/04/15 13:49:41;;;;;;;;;;;20.40;99.90;;;;;;4898879;29;19927;-81
2023/04/15 13:52:08;;;;;;;;;;;21.00;99.90;;;;;;4883213;29;20346;-81
2023/04/15 13:54:34;;;;;;;;;;;20.80;95.80;;;;;;4899410;29;19934;-81
2023/04/15 13:57:03;;;;;;;;;;;21.00;95.90;;;;;;4898442;29;20001;-81
2023/04/15 13:59:30;;;;;;;;;;;21.30;93.80;;;;;;4906541;29;19926;-81
2023/04/15 14:01:56;;;;;;;;;;;20.50;93.70;;;;;;4916168;29;19930;-81
2023/04/15 14:04:23;;;;;;;;;;;19.60;93.70;;;;;;4916822;29;20024;-79
2023/04/15 14:06:50;;;;;;;;;;;19.80;97.50;;;;;;4917285;29;19958;-82
2023/04/15 14:09:17;;;;;;;;;;;20.50;95.10;;;;;;4901829;29;19958;-81
2023/04/15 14:11:43;;;;;;;;;;;20.70;93.60;;;;;;4917987;29;19931;-81
2023/04/15 14:14:11;;;;;;;;;;;21.10;92.30;;;;;;4918242;29;19934;-82
2023/04/15 14:16:40;;;;;;;;;;;21.20;92.40;;;;;;4916638;29;20029;-82
2023/04/15 14:19:07;;;;;;;;;;;20.70;91.40;;;;;;4909042;29;20021;-82
2023/04/15 14:21:34;;;;;;;;;;;20.30;94.30;;;;;;4900728;29;19927;-81
2023/04/15 14:24:03;;;;;;;;;;;20.80;92.90;;;;;;4920518;29;20306;-81
2023/04/15 14:26:29;;;;;;;;;;;21.40;92.40;;;;;;4900918;29;20017;-81
2023/04/15 14:28:56;;;;;;;;;;;21.70;90.30;;;;;;4924970;29;19933;-82